sensor_id;sensor_type;location;lat;lon;timestamp;pressure;altitude;pressure_sealevel;temperature;humidity
71938;BME280;59810;48.800;9.086;2023-02-12T00:00:38;99580.03;;;4.12;83.64
71938;BME280;59810;48.800;9.086;2023-02-12T00:03:04;99575.50;;;4.04;84.36
71938;BME280;59810;48.800;9.086;2023-02-12T00:05:30;99577.47;;;4.02;84.44
71938;BME280;59810;48.800;9.086;2023-02-12T00:07:55;99580.31;;;4.01;84.40
71938;BME280;59810;48.800;9.086;2023-02-12T00:10:21;99579.13;;;3.95;84.90
71938;BME280;59810;48.800;9.086;2023-02-12T00:12:46;99586.31;;;3.95;85.20
71938;BME280;59810;48.800;9.086;2023-02-12T00:15:12;99577.06;;;3.89;85.64
71938;BME280;59810;48.800;9.086;2023-02-12T00:17:37;99590.44;;;3.89;85.38
71938;BME280;59810;48.800;9.086;2023-02-12T00:20:03;99584.41;;;3.87;85.05
71938;BME280;59810;48.800;9.086;2023-02-12T00:22:28;99588.91;;;3.87;85.48
71938;BME280;59810;48.800;9.086;2023-02-12T00:24:54;99589.59;;;3.89;85.34
71938;BME280;59810;48.800;9.086;2023-02-12T00:27:20;99594.09;;;3.88;85.61
71938;BME280;59810;48.800;9.086;2023-02-12T00:29:45;99596.75;;;3.88;85.63
71938;BME280;59810;48.800;9.086;2023-02-12T00:32:10;99598.75;;;3.86;85.75
71938;BME280;59810;48.800;9.086;2023-02-12T00:34:36;99595.94;;;3.88;85.61
71938;BME280;59810;48.800;9.086;2023-02-12T00:37:03;99591.13;;;3.91;85.45
71938;BME280;59810;48.800;9.086;2023-02-12T00:39:29;99599.00;;;3.93;85.38
71938;BME280;59810;48.800;9.086;2023-02-12T00:41:54;99604.16;;;3.94;85.25
71938;BME280;59810;48.800;9.086;2023-02-12T00:44:21;99600.34;;;3.97;85.31
71938;BME280;59810;48.800;9.086;2023-02-12T00:46:47;99603.19;;;3.95;85.38
71938;BME280;59810;48.800;9.086;2023-02-12T00:49:12;99613.19;;;3.93;85.92
71938;BME280;59810;48.800;9.086;2023-02-12T00:51:38;99613.03;;;3.95;85.78
71938;BME280;59810;48.800;9.086;2023-02-12T00:54:04;99612.19;;;3.94;85.68
71938;BME280;59810;48.800;9.086;2023-02-12T00:56:31;99612.03;;;3.96;85.92
71938;BME280;59810;48.800;9.086;2023-02-12T00:58:57;99612.72;;;3.98;85.50
71938;BME280;59810;48.800;9.086;2023-02-12T01:01:22;99607.19;;;3.99;85.28
71938;BME280;59810;48.800;9.086;2023-02-12T01:03:48;99612.38;;;4.01;85.20
71938;BME280;59810;48.800;9.086;2023-02-12T01:06:13;99606.03;;;4.02;85.28
71938;BME280;59810;48.800;9.086;2023-02-12T01:08:38;99609.56;;;4.02;85.36
71938;BME280;59810;48.800;9.086;2023-02-12T01:11:05;99603.88;;;4.05;85.31
71938;BME280;59810;48.800;9.086;2023-02-12T01:13:31;99604.25;;;4.11;85.74
71938;BME280;59810;48.800;9.086;2023-02-12T01:16:06;99597.91;;;4.12;85.44
71938;BME280;59810;48.800;9.086;2023-02-12T01:18:36;99602.25;;;4.13;85.64
71938;BME280;59810;48.800;9.086;2023-02-12T01:21:15;99603.72;;;4.07;85.84
71938;BME280;59810;48.800;9.086;2023-02-12T01:23:41;99609.06;;;4.07;85.91
71938;BME280;59810;48.800;9.086;2023-02-12T01:26:07;99613.25;;;4.10;85.80
71938;BME280;59810;48.800;9.086;2023-02-12T01:28:35;99604.25;;;4.11;85.72
71938;BME280;59810;48.800;9.086;2023-02-12T01:31:01;99606.59;;;4.14;85.40
71938;BME280;59810;48.800;9.086;2023-02-12T01:33:26;99599.25;;;4.16;85.30
71938;BME280;59810;48.800;9.086;2023-02-12T01:35:51;99597.41;;;4.16;85.18
71938;BME280;59810;48.800;9.086;2023-02-12T01:38:17;99605.91;;;4.12;85.58
71938;BME280;59810;48.800;9.086;2023-02-12T01:40:42;99602.88;;;4.06;86.00
71938;BME280;59810;48.800;9.086;2023-02-12T01:43:11;99611.59;;;4.09;86.19
71938;BME280;59810;48.800;9.086;2023-02-12T01:45:44;99606.91;;;4.11;85.87
71938;BME280;59810;48.800;9.086;2023-02-12T01:48:12;99605.25;;;4.10;85.60
71938;BME280;59810;48.800;9.086;2023-02-12T01:50:38;99589.19;;;4.10;85.07
71938;BME280;59810;48.800;9.086;2023-02-12T01:53:03;99595.19;;;4.03;85.36
71938;BME280;59810;48.800;9.086;2023-02-12T01:55:29;99587.34;;;4.02;85.77
71938;BME280;59810;48.800;9.086;2023-02-12T01:57:57;99595.19;;;4.03;85.74
71938;BME280;59810;48.800;9.086;2023-02-12T02:00:23;99595.19;;;4.03;85.67
71938;BME280;59810;48.800;9.086;2023-02-12T02:02:57;99585.84;;;4.07;85.70
71938;BME280;59810;48.800;9.086;2023-02-12T02:06:39;99588.88;;;4.13;85.57
71938;BME280;59810;48.800;9.086;2023-02-12T02:08:33;99598.22;;;4.09;85.83
71938;BME280;59810;48.800;9.086;2023-02-12T02:10:58;99600.72;;;4.10;85.80
71938;BME280;59810;48.800;9.086;2023-02-12T02:13:24;99601.25;;;4.14;85.36
71938;BME280;59810;48.800;9.086;2023-02-12T02:16:20;99593.06;;;4.15;85.38
71938;BME280;59810;48.800;9.086;2023-02-12T02:18:52;99589.88;;;4.12;85.24
71938;BME280;59810;48.800;9.086;2023-02-12T02:32:45;99569.94;;;3.98;86.22
71938;BME280;59810;48.800;9.086;2023-02-12T02:35:25;99569.13;;;3.97;86.46
71938;BME280;59810;48.800;9.086;2023-02-12T02:40:23;99559.78;;;4.01;86.21
71938;BME280;59810;48.800;9.086;2023-02-12T02:43:04;99571.47;;;4.00;86.20
71938;BME280;59810;48.800;9.086;2023-02-12T02:45:52;99573.09;;;3.93;86.72
71938;BME280;59810;48.800;9.086;2023-02-12T02:48:25;99565.69;;;3.87;86.96
71938;BME280;59810;48.800;9.086;2023-02-12T02:50:56;99563.34;;;3.84;87.26
71938;BME280;59810;48.800;9.086;2023-02-12T02:53:30;99568.38;;;3.87;86.89
71938;BME280;59810;48.800;9.086;2023-02-12T02:56:00;99567.03;;;3.83;86.85
71938;BME280;59810;48.800;9.086;2023-02-12T02:58:43;99569.34;;;3.78;87.11
71938;BME280;59810;48.800;9.086;2023-02-12T03:01:17;99571.00;;;3.79;87.28
71938;BME280;59810;48.800;9.086;2023-02-12T03:03:50;99565.34;;;3.82;86.54
71938;BME280;59810;48.800;9.086;2023-02-12T03:09:16;99566.66;;;3.78;87.37
71938;BME280;59810;48.800;9.086;2023-02-12T03:11:46;99564.81;;;3.79;87.35
71938;BME280;59810;48.800;9.086;2023-02-12T03:14:26;99572.53;;;3.82;87.38
71938;BME280;59810;48.800;9.086;2023-02-12T03:16:59;99568.34;;;3.79;87.34
71938;BME280;59810;48.800;9.086;2023-02-12T03:19:30;99571.84;;;3.80;87.29
71938;BME280;59810;48.800;9.086;2023-02-12T03:22:01;99574.53;;;3.80;86.97
71938;BME280;59810;48.800;9.086;2023-02-12T03:24:44;99573.34;;;3.82;87.14
71938;BME280;59810;48.800;9.086;2023-02-12T03:29:45;99577.38;;;3.86;87.04
71938;BME280;59810;48.800;9.086;2023-02-12T03:35:12;99572.31;;;3.75;87.59
71938;BME280;59810;48.800;9.086;2023-02-12T03:40:50;99579.69;;;3.81;86.93
71938;BME280;59810;48.800;9.086;2023-02-12T03:43:26;99577.03;;;3.81;86.78
71938;BME280;59810;48.800;9.086;2023-02-12T03:48:47;99573.03;;;3.85;86.81
71938;BME280;59810;48.800;9.086;2023-02-12T03:51:37;99572.38;;;3.83;86.74
71938;BME280;59810;48.800;9.086;2023-02-12T03:54:05;99575.34;;;3.80;87.44
71938;BME280;59810;48.800;9.086;2023-02-12T03:56:36;99577.72;;;3.83;87.67
71938;BME280;59810;48.800;9.086;2023-02-12T03:59:06;99580.91;;;3.87;87.32
71938;BME280;59810;48.800;9.086;2023-02-12T04:01:32;99575.38;;;3.88;86.94
71938;BME280;59810;48.800;9.086;2023-02-12T04:04:02;99584.13;;;3.90;87.00
71938;BME280;59810;48.800;9.086;2023-02-12T04:06:28;99582.56;;;3.88;87.31
71938;BME280;59810;48.800;9.086;2023-02-12T04:08:56;99584.94;;;3.91;87.34
71938;BME280;59810;48.800;9.086;2023-02-12T04:14:21;99584.63;;;3.94;86.73
71938;BME280;59810;48.800;9.086;2023-02-12T04:20:07;99581.38;;;3.82;87.29
71938;BME280;59810;48.800;9.086;2023-02-12T04:27:57;99588.88;;;3.79;87.37
71938;BME280;59810;48.800;9.086;2023-02-12T04:30:31;99587.69;;;3.73;87.78
71938;BME280;59810;48.800;9.086;2023-02-12T04:33:02;99587.34;;;3.76;87.77
71938;BME280;59810;48.800;9.086;2023-02-12T04:35:35;99594.22;;;3.79;87.23
71938;BME280;59810;48.800;9.086;2023-02-12T04:38:27;99600.88;;;3.74;87.68
71938;BME280;59810;48.800;9.086;2023-02-12T04:40:55;99597.00;;;3.69;87.65
71938;BME280;59810;48.800;9.086;2023-02-12T04:43:32;99597.00;;;3.69;87.95
71938;BME280;59810;48.800;9.086;2023-02-12T04:46:06;99602.03;;;3.72;88.08
71938;BME280;59810;48.800;9.086;2023-02-12T04:48:31;99605.19;;;3.67;88.38
71938;BME280;59810;48.800;9.086;2023-02-12T04:50:59;99602.34;;;3.69;88.35
71938;BME280;59810;48.800;9.086;2023-02-12T04:53:29;99608.06;;;3.74;87.88
71938;BME280;59810;48.800;9.086;2023-02-12T04:55:54;99611.41;;;3.76;87.79
71938;BME280;59810;48.800;9.086;2023-02-12T04:58:20;99611.09;;;3.79;88.00
71938;BME280;59810;48.800;9.086;2023-02-12T05:00:47;99615.75;;;3.77;87.64
71938;BME280;59810;48.800;9.086;2023-02-12T05:03:13;99607.88;;;3.75;87.79
71938;BME280;59810;48.800;9.086;2023-02-12T05:05:38;99608.72;;;3.76;88.00
71938;BME280;59810;48.800;9.086;2023-02-12T05:08:04;99610.09;;;3.80;87.75
71938;BME280;59810;48.800;9.086;2023-02-12T05:10:29;99610.09;;;3.80;87.68
71938;BME280;59810;48.800;9.086;2023-02-12T05:12:54;99604.75;;;3.80;87.83
71938;BME280;59810;48.800;9.086;2023-02-12T05:15:21;99602.59;;;3.84;87.28
71938;BME280;59810;48.800;9.086;2023-02-12T05:17:46;99599.59;;;3.87;87.22
71938;BME280;59810;48.800;9.086;2023-02-12T05:20:12;99599.16;;;3.91;86.92
71938;BME280;59810;48.800;9.086;2023-02-12T05:22:37;99600.66;;;3.94;86.83
71938;BME280;59810;48.800;9.086;2023-02-12T05:25:04;99598.16;;;3.92;87.13
71938;BME280;59810;48.800;9.086;2023-02-12T05:27:30;99606.84;;;3.94;87.06
71938;BME280;59810;48.800;9.086;2023-02-12T05:29:55;99603.34;;;3.94;86.95
71938;BME280;59810;48.800;9.086;2023-02-12T05:32:21;99603.19;;;3.95;86.77
71938;BME280;59810;48.800;9.086;2023-02-12T05:34:47;99601.50;;;3.94;86.85
71938;BME280;59810;48.800;9.086;2023-02-12T05:37:12;99605.84;;;3.95;86.71
71938;BME280;59810;48.800;9.086;2023-02-12T05:39:40;99604.34;;;3.93;86.59
71938;BME280;59810;48.800;9.086;2023-02-12T05:42:05;99601.81;;;3.91;86.79
71938;BME280;59810;48.800;9.086;2023-02-12T05:44:30;99603.50;;;3.92;86.84
71938;BME280;59810;48.800;9.086;2023-02-12T05:46:56;99603.66;;;3.91;87.04
71938;BME280;59810;48.800;9.086;2023-02-12T05:49:23;99611.81;;;3.89;87.16
71938;BME280;59810;48.800;9.086;2023-02-12T05:51:49;99618.13;;;3.88;87.37
71938;BME280;59810;48.800;9.086;2023-02-12T05:54:14;99613.44;;;3.82;87.59
71938;BME280;59810;48.800;9.086;2023-02-12T05:56:46;99611.91;;;3.80;87.71
71938;BME280;59810;48.800;9.086;2023-02-12T05:59:17;99609.78;;;3.83;87.61
71938;BME280;59810;48.800;9.086;2023-02-12T06:01:44;99608.09;;;3.82;87.25
71938;BME280;59810;48.800;9.086;2023-02-12T06:04:21;99610.59;;;3.84;87.14
71938;BME280;59810;48.800;9.086;2023-02-12T06:06:48;99615.78;;;3.85;87.04
71938;BME280;59810;48.800;9.086;2023-02-12T06:09:14;99608.78;;;3.84;87.16
71938;BME280;59810;48.800;9.086;2023-02-12T06:11:42;99609.78;;;3.83;87.06
71938;BME280;59810;48.800;9.086;2023-02-12T06:14:10;99604.41;;;3.83;87.17
71938;BME280;59810;48.800;9.086;2023-02-12T06:16:36;99606.25;;;3.83;87.08
71938;BME280;59810;48.800;9.086;2023-02-12T06:19:04;99605.91;;;3.78;87.84
71938;BME280;59810;48.800;9.086;2023-02-12T06:21:30;99606.06;;;3.76;87.62
71938;BME280;59810;48.800;9.086;2023-02-12T06:23:58;99604.34;;;3.67;88.15
71938;BME280;59810;48.800;9.086;2023-02-12T06:26:24;99601.34;;;3.70;88.07
71938;BME280;59810;48.800;9.086;2023-02-12T06:28:50;99606.53;;;3.71;88.17
71938;BME280;59810;48.800;9.086;2023-02-12T06:31:28;99615.50;;;3.62;88.56
71938;BME280;59810;48.800;9.086;2023-02-12T06:33:55;99612.00;;;3.62;88.78
71938;BME280;59810;48.800;9.086;2023-02-12T06:36:21;99624.34;;;3.63;88.86
71938;BME280;59810;48.800;9.086;2023-02-12T06:38:47;99621.19;;;3.67;88.24
71938;BME280;59810;48.800;9.086;2023-02-12T06:41:13;99626.06;;;3.72;87.91
71938;BME280;59810;48.800;9.086;2023-02-12T06:43:38;99622.25;;;3.74;87.65
71938;BME280;59810;48.800;9.086;2023-02-12T06:46:04;99619.72;;;3.73;88.11
71938;BME280;59810;48.800;9.086;2023-02-12T06:48:30;99628.75;;;3.72;88.13
71938;BME280;59810;48.800;9.086;2023-02-12T06:51:03;99631.78;;;3.77;88.08
71938;BME280;59810;48.800;9.086;2023-02-12T06:53:28;99629.56;;;3.72;88.06
71938;BME280;59810;48.800;9.086;2023-02-12T06:55:54;99639.44;;;3.72;88.42
71938;BME280;59810;48.800;9.086;2023-02-12T06:58:21;99641.25;;;3.71;88.47
71938;BME280;59810;48.800;9.086;2023-02-12T07:00:46;99643.94;;;3.71;88.54
71938;BME280;59810;48.800;9.086;2023-02-12T07:03:12;99648.97;;;3.74;88.25
71938;BME280;59810;48.800;9.086;2023-02-12T07:05:40;99651.16;;;3.79;87.94
71938;BME280;59810;48.800;9.086;2023-02-12T07:08:05;99657.19;;;3.81;87.44
71938;BME280;59810;48.800;9.086;2023-02-12T07:10:30;99657.84;;;3.83;87.88
71938;BME280;59810;48.800;9.086;2023-02-12T07:12:56;99652.50;;;3.83;87.95
71938;BME280;59810;48.800;9.086;2023-02-12T07:15:21;99648.38;;;3.89;87.62
71938;BME280;59810;48.800;9.086;2023-02-12T07:17:46;99651.88;;;3.89;87.88
71938;BME280;59810;48.800;9.086;2023-02-12T07:20:12;99657.78;;;3.93;87.29
71938;BME280;59810;48.800;9.086;2023-02-12T07:22:37;99652.47;;;4.01;87.35
71938;BME280;59810;48.800;9.086;2023-02-12T07:25:05;99645.66;;;4.06;87.03
71938;BME280;59810;48.800;9.086;2023-02-12T07:27:30;99651.88;;;4.15;86.85
71938;BME280;59810;48.800;9.086;2023-02-12T07:29:56;99645.03;;;4.21;86.37
71938;BME280;59810;48.800;9.086;2023-02-12T07:32:21;99649.09;;;4.25;86.15
71938;BME280;59810;48.800;9.086;2023-02-12T07:34:46;99649.28;;;4.31;85.72
71938;BME280;59810;48.800;9.086;2023-02-12T07:37:14;99645.31;;;4.35;85.35
71938;BME280;59810;48.800;9.086;2023-02-12T07:39:39;99644.81;;;4.40;85.11
71938;BME280;59810;48.800;9.086;2023-02-12T07:42:06;99655.03;;;4.45;84.55
71938;BME280;59810;48.800;9.086;2023-02-12T07:44:33;99650.34;;;4.47;84.77
71938;BME280;59810;48.800;9.086;2023-02-12T07:46:58;99649.19;;;4.49;84.57
71938;BME280;59810;48.800;9.086;2023-02-12T07:49:23;99646.50;;;4.49;84.52
71938;BME280;59810;48.800;9.086;2023-02-12T07:51:49;99651.69;;;4.51;84.17
71938;BME280;59810;48.800;9.086;2023-02-12T07:54:15;99651.53;;;4.52;84.21
71938;BME280;59810;48.800;9.086;2023-02-12T07:56:42;99646.00;;;4.46;84.71
71938;BME280;59810;48.800;9.086;2023-02-12T07:59:12;99645.50;;;4.50;84.38
71938;BME280;59810;48.800;9.086;2023-02-12T08:01:40;99651.38;;;4.54;84.56
71938;BME280;59810;48.800;9.086;2023-02-12T08:04:09;99646.88;;;4.54;84.13
71938;BME280;59810;48.800;9.086;2023-02-12T08:06:37;99640.88;;;4.60;84.28
71938;BME280;59810;48.800;9.086;2023-02-12T08:09:07;99646.25;;;4.68;83.98
71938;BME280;59810;48.800;9.086;2023-02-12T08:11:37;99643.94;;;4.82;88.10
71938;BME280;59810;48.800;9.086;2023-02-12T08:14:05;99641.19;;;5.24;94.25
71938;BME280;59810;48.800;9.086;2023-02-12T08:16:35;99641.84;;;5.75;91.80
71938;BME280;59810;48.800;9.086;2023-02-12T08:19:06;99639.09;;;6.15;93.82
71938;BME280;59810;48.800;9.086;2023-02-12T08:21:32;99637.06;;;6.34;88.13
71938;BME280;59810;48.800;9.086;2023-02-12T08:23:58;99634.41;;;6.65;90.13
71938;BME280;59810;48.800;9.086;2023-02-12T08:26:29;99636.03;;;6.74;84.35
71938;BME280;59810;48.800;9.086;2023-02-12T08:28:59;99632.44;;;6.81;81.53
71938;BME280;59810;48.800;9.086;2023-02-12T08:31:29;99641.19;;;6.83;80.34
71938;BME280;59810;48.800;9.086;2023-02-12T08:33:58;99632.13;;;6.84;80.27
71938;BME280;59810;48.800;9.086;2023-02-12T08:36:39;99632.91;;;6.93;80.01
71938;BME280;59810;48.800;9.086;2023-02-12T08:39:06;99635.72;;;7.00;81.62
71938;BME280;59810;48.800;9.086;2023-02-12T08:41:31;99639.66;;;6.81;77.28
71938;BME280;59810;48.800;9.086;2023-02-12T08:43:58;99648.56;;;6.81;77.24
71938;BME280;59810;48.800;9.086;2023-02-12T08:46:27;99642.72;;;6.78;77.21
71938;BME280;59810;48.800;9.086;2023-02-12T08:48:54;99642.34;;;6.50;75.18
71938;BME280;59810;48.800;9.086;2023-02-12T08:51:22;99649.59;;;6.41;75.91
71938;BME280;59810;48.800;9.086;2023-02-12T08:53:52;99653.28;;;6.40;76.54
71938;BME280;59810;48.800;9.086;2023-02-12T08:56:18;99648.25;;;6.37;76.18
71938;BME280;59810;48.800;9.086;2023-02-12T08:58:44;99650.28;;;6.35;76.45
71938;BME280;59810;48.800;9.086;2023-02-12T09:01:19;99646.63;;;6.28;76.68
71938;BME280;59810;48.800;9.086;2023-02-12T09:03:45;99640.56;;;6.34;76.80
71938;BME280;59810;48.800;9.086;2023-02-12T09:06:11;99651.91;;;6.44;76.46
71938;BME280;59810;48.800;9.086;2023-02-12T09:08:37;99644.41;;;6.40;75.85
71938;BME280;59810;48.800;9.086;2023-02-12T09:11:08;99655.25;;;6.46;75.88
71938;BME280;59810;48.800;9.086;2023-02-12T09:13:34;99660.97;;;6.51;74.90
71938;BME280;59810;48.800;9.086;2023-02-12T09:16:02;99660.69;;;6.30;75.22
71938;BME280;59810;48.800;9.086;2023-02-12T09:18:27;99660.91;;;6.20;75.44
71938;BME280;59810;48.800;9.086;2023-02-12T09:21:00;99651.84;;;6.21;75.52
71938;BME280;59810;48.800;9.086;2023-02-12T09:23:26;99652.69;;;6.22;75.91
71938;BME280;59810;48.800;9.086;2023-02-12T09:25:51;99652.19;;;6.10;76.64
71938;BME280;59810;48.800;9.086;2023-02-12T09:28:17;99654.72;;;6.20;76.84
71938;BME280;59810;48.800;9.086;2023-02-12T09:30:42;99651.53;;;6.64;89.47
71938;BME280;59810;48.800;9.086;2023-02-12T09:33:08;99656.59;;;7.12;83.08
71938;BME280;59810;48.800;9.086;2023-02-12T09:35:35;99649.41;;;7.59;78.09
71938;BME280;59810;48.800;9.086;2023-02-12T09:38:01;99661.06;;;7.89;77.17
71938;BME280;59810;48.800;9.086;2023-02-12T09:40:34;99665.44;;;8.04;74.02
71938;BME280;59810;48.800;9.086;2023-02-12T09:45:56;99658.03;;;8.21;72.99
71938;BME280;59810;48.800;9.086;2023-02-12T09:48:42;99658.97;;;8.14;73.02
71938;BME280;59810;48.800;9.086;2023-02-12T09:51:12;99656.09;;;8.45;71.62
71938;BME280;59810;48.800;9.086;2023-02-12T09:53:41;99655.91;;;8.31;73.13
71938;BME280;59810;48.800;9.086;2023-02-12T09:56:16;99656.28;;;8.72;70.40
71938;BME280;59810;48.800;9.086;2023-02-12T09:58:58;99653.53;;;8.36;69.08
71938;BME280;59810;48.800;9.086;2023-02-12T10:01:26;99659.72;;;8.22;70.20
71938;BME280;59810;48.800;9.086;2023-02-12T10:03:51;99659.06;;;8.20;70.87
71938;BME280;59810;48.800;9.086;2023-02-12T10:06:24;99663.22;;;8.08;71.40
71938;BME280;59810;48.800;9.086;2023-02-12T10:11:39;99657.84;;;7.70;73.00
71938;BME280;59810;48.800;9.086;2023-02-12T10:28:33;99655.19;;;7.47;73.49
71938;BME280;59810;48.800;9.086;2023-02-12T10:31:06;99646.88;;;7.57;74.08
71938;BME280;59810;48.800;9.086;2023-02-12T10:33:48;99644.22;;;7.72;73.27
71938;BME280;59810;48.800;9.086;2023-02-12T10:36:38;99644.31;;;7.78;73.15
71938;BME280;59810;48.800;9.086;2023-02-12T10:39:28;99646.13;;;7.86;72.90
71938;BME280;59810;48.800;9.086;2023-02-12T10:42:02;99650.59;;;7.94;72.38
71938;BME280;59810;48.800;9.086;2023-02-12T10:44:34;99645.84;;;7.96;72.92
71938;BME280;59810;48.800;9.086;2023-02-12T10:47:02;99650.88;;;7.99;71.99
71938;BME280;59810;48.800;9.086;2023-02-12T10:49:30;99641.13;;;7.83;72.18
71938;BME280;59810;48.800;9.086;2023-02-12T10:55:02;99643.25;;;7.88;72.41
71938;BME280;59810;48.800;9.086;2023-02-12T10:57:48;99640.38;;;7.89;72.13
71938;BME280;59810;48.800;9.086;2023-02-12T11:00:24;99638.63;;;7.82;73.11
71938;BME280;59810;48.800;9.086;2023-02-12T11:03:02;99635.59;;;7.76;73.01
71938;BME280;59810;48.800;9.086;2023-02-12T11:05:31;99637.03;;;7.87;72.42
71938;BME280;59810;48.800;9.086;2023-02-12T11:07:57;99633.69;;;7.85;73.16
71938;BME280;59810;48.800;9.086;2023-02-12T11:10:41;99636.63;;;7.75;73.23
71938;BME280;59810;48.800;9.086;2023-02-12T11:13:22;99632.91;;;7.76;73.07
71938;BME280;59810;48.800;9.086;2023-02-12T11:15:50;99634.34;;;7.87;73.04
71938;BME280;59810;48.800;9.086;2023-02-12T11:18:34;99630.97;;;7.70;73.39
71938;BME280;59810;48.800;9.086;2023-02-12T11:21:07;99625.81;;;7.84;73.08
71938;BME280;59810;48.800;9.086;2023-02-12T11:23:38;99624.03;;;7.76;73.11
71938;BME280;59810;48.800;9.086;2023-02-12T11:29:16;99618.59;;;7.99;72.90
71938;BME280;59810;48.800;9.086;2023-02-12T11:31:41;99617.84;;;8.05;72.90
71938;BME280;59810;48.800;9.086;2023-02-12T11:34:17;99616.91;;;7.98;72.40
71938;BME280;59810;48.800;9.086;2023-02-12T11:36:48;99618.78;;;7.83;73.13
71938;BME280;59810;48.800;9.086;2023-02-12T11:41:50;99619.63;;;7.98;73.06
71938;BME280;59810;48.800;9.086;2023-02-12T11:44:50;99606.25;;;7.90;73.16
71938;BME280;59810;48.800;9.086;2023-02-12T11:47:26;99611.06;;;8.09;72.75
71938;BME280;59810;48.800;9.086;2023-02-12T11:52:27;99616.28;;;8.10;72.73
71938;BME280;59810;48.800;9.086;2023-02-12T11:54:57;99613.06;;;8.15;73.10
71938;BME280;59810;48.800;9.086;2023-02-12T12:05:50;99613.31;;;8.05;72.93
71938;BME280;59810;48.800;9.086;2023-02-12T12:09:11;99606.47;;;8.18;72.84
71938;BME280;59810;48.800;9.086;2023-02-12T12:11:24;99604.03;;;8.23;71.88
71938;BME280;59810;48.800;9.086;2023-02-12T12:16:53;99602.66;;;8.41;71.97
71938;BME280;59810;48.800;9.086;2023-02-12T12:19:48;99601.16;;;8.54;71.46
71938;BME280;59810;48.800;9.086;2023-02-12T12:22:43;99593.22;;;8.46;71.65
71938;BME280;59810;48.800;9.086;2023-02-12T12:25:21;99596.72;;;8.46;71.89
71938;BME280;59810;48.800;9.086;2023-02-12T12:30:56;99589.00;;;8.43;71.85
71938;BME280;59810;48.800;9.086;2023-02-12T12:39:06;99589.13;;;8.35;71.29
71938;BME280;59810;48.800;9.086;2023-02-12T12:47:40;99586.06;;;8.74;71.05
71938;BME280;59810;48.800;9.086;2023-02-12T13:13:12;99553.28;;;9.56;66.69
71938;BME280;59810;48.800;9.086;2023-02-12T13:15:52;99545.97;;;9.78;66.63
71938;BME280;59810;48.800;9.086;2023-02-12T13:21:27;99547.72;;;9.92;66.40
71938;BME280;59810;48.800;9.086;2023-02-12T13:24:06;99544.97;;;10.20;65.29
71938;BME280;59810;48.800;9.086;2023-02-12T13:26:56;99546.31;;;10.37;65.02
71938;BME280;59810;48.800;9.086;2023-02-12T13:29:36;99542.16;;;10.00;65.44
71938;BME280;59810;48.800;9.086;2023-02-12T13:32:15;99540.25;;;10.28;65.11
71938;BME280;59810;48.800;9.086;2023-02-12T13:34:46;99533.41;;;10.26;64.92
71938;BME280;59810;48.800;9.086;2023-02-12T13:37:34;99536.53;;;9.95;65.73
71938;BME280;59810;48.800;9.086;2023-02-12T13:40:03;99532.00;;;10.02;66.32
71938;BME280;59810;48.800;9.086;2023-02-12T13:43:06;99527.19;;;10.32;65.66
71938;BME280;59810;48.800;9.086;2023-02-12T13:58:53;99507.22;;;11.07;62.50
71938;BME280;59810;48.800;9.086;2023-02-12T14:04:42;99514.72;;;11.12;62.06
71938;BME280;59810;48.800;9.086;2023-02-12T14:07:21;99517.00;;;11.08;61.53
71938;BME280;59810;48.800;9.086;2023-02-12T14:25:24;99508.25;;;10.86;62.41
71938;BME280;59810;48.800;9.086;2023-02-12T14:27:56;99499.50;;;11.04;62.31
71938;BME280;59810;48.800;9.086;2023-02-12T14:30:32;99503.88;;;10.79;62.64
71938;BME280;59810;48.800;9.086;2023-02-12T14:33:08;99494.88;;;10.65;63.58
71938;BME280;59810;48.800;9.086;2023-02-12T14:35:36;99492.78;;;10.54;64.00
71938;BME280;59810;48.800;9.086;2023-02-12T14:41:22;99487.72;;;10.31;64.92
71938;BME280;59810;48.800;9.086;2023-02-12T14:49:33;99498.53;;;10.38;64.27
71938;BME280;59810;48.800;9.086;2023-02-12T14:54:38;99488.56;;;9.90;66.48
71938;BME280;59810;48.800;9.086;2023-02-12T14:57:08;99487.00;;;9.75;66.40
71938;BME280;59810;48.800;9.086;2023-02-12T14:59:40;99486.78;;;9.70;67.54
71938;BME280;59810;48.800;9.086;2023-02-12T15:02:14;99490.81;;;9.52;67.22
71938;BME280;59810;48.800;9.086;2023-02-12T15:04:43;99490.59;;;9.19;68.64
71938;BME280;59810;48.800;9.086;2023-02-12T15:07:16;99498.31;;;9.29;68.44
71938;BME280;59810;48.800;9.086;2023-02-12T15:09:57;99496.59;;;9.21;69.22
71938;BME280;59810;48.800;9.086;2023-02-12T15:12:34;99492.69;;;9.24;69.22
71938;BME280;59810;48.800;9.086;2023-02-12T15:18:18;99484.78;;;9.22;69.02
71938;BME280;59810;48.800;9.086;2023-02-12T15:20:54;99496.94;;;9.12;69.32
71938;BME280;59810;48.800;9.086;2023-02-12T15:25:59;99486.53;;;9.09;69.17
71938;BME280;59810;48.800;9.086;2023-02-12T15:28:30;99487.50;;;9.01;69.57
71938;BME280;59810;48.800;9.086;2023-02-12T15:31:00;99482.59;;;8.83;70.12
71938;BME280;59810;48.800;9.086;2023-02-12T15:33:28;99481.97;;;8.81;70.47
71938;BME280;59810;48.800;9.086;2023-02-12T15:35:55;99486.63;;;8.72;70.48
71938;BME280;59810;48.800;9.086;2023-02-12T15:38:32;99486.16;;;8.69;70.75
71938;BME280;59810;48.800;9.086;2023-02-12T15:41:00;99481.31;;;8.58;70.61
71938;BME280;59810;48.800;9.086;2023-02-12T15:43:28;99478.75;;;8.50;71.36
71938;BME280;59810;48.800;9.086;2023-02-12T15:46:02;99480.97;;;8.31;72.02
71938;BME280;59810;48.800;9.086;2023-02-12T15:48:32;99466.16;;;8.21;72.09
71938;BME280;59810;48.800;9.086;2023-02-12T15:51:08;99472.22;;;8.08;72.76
71938;BME280;59810;48.800;9.086;2023-02-12T15:53:39;99463.03;;;8.02;72.68
71938;BME280;59810;48.800;9.086;2023-02-12T15:56:17;99470.13;;;7.89;73.53
71938;BME280;59810;48.800;9.086;2023-02-12T15:58:54;99469.09;;;7.75;73.65
71938;BME280;59810;48.800;9.086;2023-02-12T16:01:30;99468.00;;;7.69;74.10
71938;BME280;59810;48.800;9.086;2023-02-12T16:03:57;99464.31;;;7.56;74.76
71938;BME280;59810;48.800;9.086;2023-02-12T16:06:24;99468.91;;;7.47;74.89
71938;BME280;59810;48.800;9.086;2023-02-12T16:09:01;99473.44;;;7.32;75.54
71938;BME280;59810;48.800;9.086;2023-02-12T16:11:32;99470.47;;;7.27;75.84
71938;BME280;59810;48.800;9.086;2023-02-12T16:14:03;99473.44;;;7.17;76.29
71938;BME280;59810;48.800;9.086;2023-02-12T16:16:48;99470.63;;;7.10;76.70
71938;BME280;59810;48.800;9.086;2023-02-12T16:19:22;99473.22;;;7.04;76.83